sensor_id;sensor_type;location;lat;lon;timestamp;temperature;humidity
14531;DHT22;7352;50.866;4.366;2023-05-09T00:01:12;17.60;99.90
14531;DHT22;7352;50.866;4.366;2023-05-09T00:03:41;17.40;99.90
14531;DHT22;7352;50.866;4.366;2023-05-09T00:06:14;17.50;99.90
14531;DHT22;7352;50.866;4.366;2023-05-09T00:08:47;17.60;99.90
14531;DHT22;7352;50.866;4.366;2023-05-09T00:11:14;17.70;99.90
14531;DHT22;7352;50.866;4.366;2023-05-09T00:13:42;17.70;99.90
14531;DHT22;7352;50.866;4.366;2023-05-09T00:16:11;17.60;99.90
14531;DHT22;7352;50.866;4.366;2023-05-09T00:18:38;17.60;99.90
14531;DHT22;7352;50.866;4.366;2023-05-09T00:21:07;17.50;99.90
14531;DHT22;7352;50.866;4.366;2023-05-09T00:23:34;17.50;99.90
14531;DHT22;7352;50.866;4.366;2023-05-09T00:26:01;17.60;99.90
14531;DHT22;7352;50.866;4.366;2023-05-09T00:28:28;17.50;99.90
14531;DHT22;7352;50.866;4.366;2023-05-09T00:30:56;17.60;99.90
14531;DHT22;7352;50.866;4.366;2023-05-09T00:33:24;17.70;99.90
14531;DHT22;7352;50.866;4.366;2023-05-09T00:35:52;17.70;99.90
14531;DHT22;7352;50.866;4.366;2023-05-09T00:38:19;17.70;99.90
14531;DHT22;7352;50.866;4.366;2023-05-09T00:40:47;17.60;99.90
14531;DHT22;7352;50.866;4.366;2023-05-09T00:43:14;17.50;99.90
14531;DHT22;7352;50.866;4.366;2023-05-09T00:45:41;17.60;99.90
14531;DHT22;7352;50.866;4.366;2023-05-09T00:48:08;17.60;99.90
14531;DHT22;7352;50.866;4.366;2023-05-09T00:50:37;17.60;99.90
14531;DHT22;7352;50.866;4.366;2023-05-09T00:53:04;17.60;99.90
14531;DHT22;7352;50.866;4.366;2023-05-09T00:55:32;17.50;99.90
14531;DHT22;7352;50.866;4.366;2023-05-09T00:57:59;17.50;99.90
14531;DHT22;7352;50.866;4.366;2023-05-09T01:00:27;17.50;99.90
14531;DHT22;7352;50.866;4.366;2023-05-09T01:02:54;17.60;99.90
14531;DHT22;7352;50.866;4.366;2023-05-09T01:05:26;17.60;99.90
14531;DHT22;7352;50.866;4.366;2023-05-09T01:08:07;17.60;99.90
14531;DHT22;7352;50.866;4.366;2023-05-09T01:10:42;17.60;99.90
14531;DHT22;7352;50.866;4.366;2023-05-09T01:13:23;17.50;99.90
14531;DHT22;7352;50.866;4.366;2023-05-09T01:15:58;17.30;99.90
14531;DHT22;7352;50.866;4.366;2023-05-09T01:18:34;17.40;99.90
14531;DHT22;7352;50.866;4.366;2023-05-09T01:21:10;17.40;99.90
14531;DHT22;7352;50.866;4.366;2023-05-09T01:24:12;17.50;99.90
14531;DHT22;7352;50.866;4.366;2023-05-09T01:27:14;17.50;99.90
14531;DHT22;7352;50.866;4.366;2023-05-09T01:29:52;17.50;99.90
14531;DHT22;7352;50.866;4.366;2023-05-09T01:32:24;17.50;99.90
14531;DHT22;7352;50.866;4.366;2023-05-09T01:34:54;17.50;99.90
14531;DHT22;7352;50.866;4.366;2023-05-09T01:37:26;17.50;99.90
14531;DHT22;7352;50.866;4.366;2023-05-09T01:39:58;17.70;99.90
14531;DHT22;7352;50.866;4.366;2023-05-09T01:42:27;17.80;99.90
14531;DHT22;7352;50.866;4.366;2023-05-09T01:44:58;17.60;99.90
14531;DHT22;7352;50.866;4.366;2023-05-09T01:47:25;17.70;99.90
14531;DHT22;7352;50.866;4.366;2023-05-09T01:49:54;17.70;99.90
14531;DHT22;7352;50.866;4.366;2023-05-09T01:52:22;17.70;99.90
14531;DHT22;7352;50.866;4.366;2023-05-09T01:54:51;17.70;99.90
14531;DHT22;7352;50.866;4.366;2023-05-09T01:57:19;17.70;99.90
14531;DHT22;7352;50.866;4.366;2023-05-09T01:59:46;17.70;99.90
14531;DHT22;7352;50.866;4.366;2023-05-09T02:02:16;17.70;99.90
14531;DHT22;7352;50.866;4.366;2023-05-09T02:04:44;17.80;99.90
14531;DHT22;7352;50.866;4.366;2023-05-09T02:07:12;17.70;99.90
14531;DHT22;7352;50.866;4.366;2023-05-09T02:09:40;17.50;99.90
14531;DHT22;7352;50.866;4.366;2023-05-09T02:12:07;17.60;99.90
14531;DHT22;7352;50.866;4.366;2023-05-09T02:14:34;17.60;99.90
14531;DHT22;7352;50.866;4.366;2023-05-09T02:17:01;17.70;99.90
14531;DHT22;7352;50.866;4.366;2023-05-09T02:19:34;17.60;99.90
14531;DHT22;7352;50.866;4.366;2023-05-09T02:22:02;17.60;99.90
14531;DHT22;7352;50.866;4.366;2023-05-09T02:24:31;17.50;99.90
14531;DHT22;7352;50.866;4.366;2023-05-09T02:26:59;17.50;99.90
14531;DHT22;7352;50.866;4.366;2023-05-09T02:29:30;17.50;99.90
14531;DHT22;7352;50.866;4.366;2023-05-09T02:32:07;17.40;99.90
14531;DHT22;7352;50.866;4.366;2023-05-09T02:34:37;17.30;99.90
14531;DHT22;7352;50.866;4.366;2023-05-09T02:37:06;17.40;99.90
14531;DHT22;7352;50.866;4.366;2023-05-09T02:39:35;17.10;99.90
14531;DHT22;7352;50.866;4.366;2023-05-09T02:42:07;17.40;99.90
14531;DHT22;7352;50.866;4.366;2023-05-09T02:44:36;17.50;99.90
14531;DHT22;7352;50.866;4.366;2023-05-09T02:47:05;17.60;99.90
14531;DHT22;7352;50.866;4.366;2023-05-09T02:49:32;17.60;99.90
14531;DHT22;7352;50.866;4.366;2023-05-09T02:52:01;17.50;99.90
14531;DHT22;7352;50.866;4.366;2023-05-09T02:54:28;17.50;99.90
14531;DHT22;7352;50.866;4.366;2023-05-09T02:56:56;17.60;99.90
14531;DHT22;7352;50.866;4.366;2023-05-09T02:59:24;17.70;99.90
14531;DHT22;7352;50.866;4.366;2023-05-09T03:01:51;17.60;99.90
14531;DHT22;7352;50.866;4.366;2023-05-09T03:04:18;17.70;99.90
14531;DHT22;7352;50.866;4.366;2023-05-09T03:06:46;17.60;99.90
14531;DHT22;7352;50.866;4.366;2023-05-09T03:09:14;17.50;99.90
14531;DHT22;7352;50.866;4.366;2023-05-09T03:11:43;17.50;99.90
14531;DHT22;7352;50.866;4.366;2023-05-09T03:14:10;17.50;99.90
14531;DHT22;7352;50.866;4.366;2023-05-09T03:16:39;17.60;99.90
14531;DHT22;7352;50.866;4.366;2023-05-09T03:19:06;17.50;99.90
14531;DHT22;7352;50.866;4.366;2023-05-09T03:21:34;17.50;99.90
14531;DHT22;7352;50.866;4.366;2023-05-09T03:24:01;17.50;99.90
14531;DHT22;7352;50.866;4.366;2023-05-09T03:26:30;17.50;99.90
14531;DHT22;7352;50.866;4.366;2023-05-09T03:29:00;17.50;99.90
14531;DHT22;7352;50.866;4.366;2023-05-09T03:31:28;17.40;99.90
14531;DHT22;7352;50.866;4.366;2023-05-09T03:33:55;17.30;99.90
14531;DHT22;7352;50.866;4.366;2023-05-09T03:36:22;17.20;99.90
14531;DHT22;7352;50.866;4.366;2023-05-09T03:38:50;17.20;99.90
14531;DHT22;7352;50.866;4.366;2023-05-09T03:41:17;17.40;99.90
14531;DHT22;7352;50.866;4.366;2023-05-09T03:43:46;17.50;99.90
14531;DHT22;7352;50.866;4.366;2023-05-09T03:46:13;17.30;99.90
14531;DHT22;7352;50.866;4.366;2023-05-09T03:48:40;17.20;99.90
14531;DHT22;7352;50.866;4.366;2023-05-09T03:51:07;17.20;99.90
14531;DHT22;7352;50.866;4.366;2023-05-09T03:53:34;17.20;99.90
14531;DHT22;7352;50.866;4.366;2023-05-09T03:56:01;17.20;99.90
14531;DHT22;7352;50.866;4.366;2023-05-09T03:58:29;17.10;99.90
14531;DHT22;7352;50.866;4.366;2023-05-09T04:04:21;17.20;99.90
14531;DHT22;7352;50.866;4.366;2023-05-09T04:06:53;17.20;99.90
14531;DHT22;7352;50.866;4.366;2023-05-09T04:09:20;17.20;99.90
14531;DHT22;7352;50.866;4.366;2023-05-09T04:11:55;17.30;99.90
14531;DHT22;7352;50.866;4.366;2023-05-09T04:14:30;17.30;99.90
14531;DHT22;7352;50.866;4.366;2023-05-09T04:16:59;17.30;99.90
14531;DHT22;7352;50.866;4.366;2023-05-09T04:19:28;17.20;99.90
14531;DHT22;7352;50.866;4.366;2023-05-09T04:21:55;17.20;99.90
14531;DHT22;7352;50.866;4.366;2023-05-09T04:24:23;17.20;99.90
14531;DHT22;7352;50.866;4.366;2023-05-09T04:26:51;17.20;99.90
14531;DHT22;7352;50.866;4.366;2023-05-09T04:29:18;17.20;99.90
14531;DHT22;7352;50.866;4.366;2023-05-09T04:31:45;17.20;99.90
14531;DHT22;7352;50.866;4.366;2023-05-09T04:34:13;17.20;99.90
14531;DHT22;7352;50.866;4.366;2023-05-09T04:36:42;17.20;99.90
14531;DHT22;7352;50.866;4.366;2023-05-09T04:39:09;17.30;99.90
14531;DHT22;7352;50.866;4.366;2023-05-09T04:41:37;17.20;99.90
14531;DHT22;7352;50.866;4.366;2023-05-09T04:44:04;17.10;99.90
14531;DHT22;7352;50.866;4.366;2023-05-09T04:46:32;17.20;99.90
14531;DHT22;7352;50.866;4.366;2023-05-09T04:48:59;17.30;99.90
14531;DHT22;7352;50.866;4.366;2023-05-09T04:51:26;17.10;99.90
14531;DHT22;7352;50.866;4.366;2023-05-09T04:53:56;17.10;99.90
14531;DHT22;7352;50.866;4.366;2023-05-09T04:56:23;17.10;99.90
14531;DHT22;7352;50.866;4.366;2023-05-09T04:58:50;17.20;99.90
14531;DHT22;7352;50.866;4.366;2023-05-09T05:01:18;17.20;99.90
14531;DHT22;7352;50.866;4.366;2023-05-09T05:03:46;17.30;99.90
14531;DHT22;7352;50.866;4.366;2023-05-09T05:06:13;17.30;99.90
14531;DHT22;7352;50.866;4.366;2023-05-09T05:08:41;17.20;99.90
14531;DHT22;7352;50.866;4.366;2023-05-09T05:11:16;17.30;99.90
14531;DHT22;7352;50.866;4.366;2023-05-09T05:13:48;17.20;99.90
14531;DHT22;7352;50.866;4.366;2023-05-09T05:16:16;17.20;99.90
14531;DHT22;7352;50.866;4.366;2023-05-09T05:18:46;17.00;99.90
14531;DHT22;7352;50.866;4.366;2023-05-09T05:21:24;17.00;99.90
14531;DHT22;7352;50.866;4.366;2023-05-09T05:23:57;17.00;99.90
14531;DHT22;7352;50.866;4.366;2023-05-09T05:26:36;17.10;99.90
14531;DHT22;7352;50.866;4.366;2023-05-09T05:29:04;17.00;99.90
14531;DHT22;7352;50.866;4.366;2023-05-09T05:31:33;17.10;99.90
14531;DHT22;7352;50.866;4.366;2023-05-09T05:34:02;17.10;99.90
14531;DHT22;7352;50.866;4.366;2023-05-09T05:36:30;17.20;99.90
14531;DHT22;7352;50.866;4.366;2023-05-09T05:38:59;17.20;99.90
14531;DHT22;7352;50.866;4.366;2023-05-09T05:41:26;17.20;99.90
14531;DHT22;7352;50.866;4.366;2023-05-09T05:43:54;17.10;99.90
14531;DHT22;7352;50.866;4.366;2023-05-09T05:46:25;17.00;99.90
14531;DHT22;7352;50.866;4.366;2023-05-09T05:48:53;17.00;99.90
14531;DHT22;7352;50.866;4.366;2023-05-09T05:51:21;17.00;99.90
14531;DHT22;7352;50.866;4.366;2023-05-09T05:53:48;17.00;99.90
14531;DHT22;7352;50.866;4.366;2023-05-09T05:56:16;17.00;99.90
14531;DHT22;7352;50.866;4.366;2023-05-09T05:58:43;17.10;99.90
14531;DHT22;7352;50.866;4.366;2023-05-09T06:01:13;17.10;99.90
14531;DHT22;7352;50.866;4.366;2023-05-09T06:03:40;17.10;99.90
14531;DHT22;7352;50.866;4.366;2023-05-09T06:06:13;17.20;99.90
14531;DHT22;7352;50.866;4.366;2023-05-09T06:08:41;17.30;99.90
14531;DHT22;7352;50.866;4.366;2023-05-09T06:11:09;17.20;99.90
14531;DHT22;7352;50.866;4.366;2023-05-09T06:13:36;17.30;99.90
14531;DHT22;7352;50.866;4.366;2023-05-09T06:16:04;17.40;99.90
14531;DHT22;7352;50.866;4.366;2023-05-09T06:18:33;17.60;99.90
14531;DHT22;7352;50.866;4.366;2023-05-09T06:21:02;17.60;99.90
14531;DHT22;7352;50.866;4.366;2023-05-09T06:23:30;17.80;99.90
14531;DHT22;7352;50.866;4.366;2023-05-09T06:25:57;17.80;99.90
14531;DHT22;7352;50.866;4.366;2023-05-09T06:28:24;17.90;99.90
14531;DHT22;7352;50.866;4.366;2023-05-09T06:30:52;17.80;99.90
14531;DHT22;7352;50.866;4.366;2023-05-09T06:33:19;17.60;99.90
14531;DHT22;7352;50.866;4.366;2023-05-09T06:35:49;17.70;99.90
14531;DHT22;7352;50.866;4.366;2023-05-09T06:38:17;17.70;99.90
14531;DHT22;7352;50.866;4.366;2023-05-09T06:40:44;17.70;99.90
14531;DHT22;7352;50.866;4.366;2023-05-09T06:43:11;17.60;99.90
14531;DHT22;7352;50.866;4.366;2023-05-09T06:45:38;17.70;99.90
14531;DHT22;7352;50.866;4.366;2023-05-09T06:48:05;17.70;99.90
14531;DHT22;7352;50.866;4.366;2023-05-09T06:50:33;17.80;99.90
14531;DHT22;7352;50.866;4.366;2023-05-09T06:53:04;17.80;99.90
14531;DHT22;7352;50.866;4.366;2023-05-09T06:55:32;17.80;99.90
14531;DHT22;7352;50.866;4.366;2023-05-09T06:58:00;17.80;99.90
14531;DHT22;7352;50.866;4.366;2023-05-09T07:00:29;17.70;99.90
14531;DHT22;7352;50.866;4.366;2023-05-09T07:02:56;17.70;99.90
14531;DHT22;7352;50.866;4.366;2023-05-09T07:05:26;17.60;99.90
14531;DHT22;7352;50.866;4.366;2023-05-09T07:07:59;17.60;99.90
14531;DHT22;7352;50.866;4.366;2023-05-09T07:10:28;17.80;99.90
14531;DHT22;7352;50.866;4.366;2023-05-09T07:12:56;17.80;99.90
14531;DHT22;7352;50.866;4.366;2023-05-09T07:15:23;17.90;99.90
14531;DHT22;7352;50.866;4.366;2023-05-09T07:17:50;17.70;99.90
14531;DHT22;7352;50.866;4.366;2023-05-09T07:20:18;17.60;99.90
14531;DHT22;7352;50.866;4.366;2023-05-09T07:22:45;17.60;99.90
14531;DHT22;7352;50.866;4.366;2023-05-09T07:25:12;17.60;99.90
14531;DHT22;7352;50.866;4.366;2023-05-09T07:27:41;17.50;99.90
14531;DHT22;7352;50.866;4.366;2023-05-09T07:30:08;17.60;99.90
14531;DHT22;7352;50.866;4.366;2023-05-09T07:32:36;17.50;99.90
14531;DHT22;7352;50.866;4.366;2023-05-09T07:35:04;17.50;99.90
14531;DHT22;7352;50.866;4.366;2023-05-09T07:37:31;17.60;99.90
14531;DHT22;7352;50.866;4.366;2023-05-09T07:39:59;17.60;99.90
14531;DHT22;7352;50.866;4.366;2023-05-09T07:42:26;17.70;99.90
14531;DHT22;7352;50.866;4.366;2023-05-09T07:45:00;17.80;99.90
14531;DHT22;7352;50.866;4.366;2023-05-09T07:47:31;17.70;99.90
14531;DHT22;7352;50.866;4.366;2023-05-09T07:49:59;17.80;99.90
14531;DHT22;7352;50.866;4.366;2023-05-09T07:52:28;17.80;99.90
14531;DHT22;7352;50.866;4.366;2023-05-09T07:54:55;17.80;99.90
14531;DHT22;7352;50.866;4.366;2023-05-09T07:57:22;17.80;99.90
14531;DHT22;7352;50.866;4.366;2023-05-09T07:59:49;17.90;99.90
14531;DHT22;7352;50.866;4.366;2023-05-09T08:02:18;17.90;99.90
14531;DHT22;7352;50.866;4.366;2023-05-09T08:04:45;17.90;99.90
14531;DHT22;7352;50.866;4.366;2023-05-09T08:07:14;17.80;99.90
14531;DHT22;7352;50.866;4.366;2023-05-09T08:09:44;17.70;99.90
14531;DHT22;7352;50.866;4.366;2023-05-09T08:12:12;17.90;99.90
14531;DHT22;7352;50.866;4.366;2023-05-09T08:14:39;17.80;99.90
14531;DHT22;7352;50.866;4.366;2023-05-09T08:17:06;17.80;99.90
14531;DHT22;7352;50.866;4.366;2023-05-09T08:19:35;17.70;99.90
14531;DHT22;7352;50.866;4.366;2023-05-09T08:22:02;17.50;99.90
14531;DHT22;7352;50.866;4.366;2023-05-09T08:24:29;17.60;99.90
14531;DHT22;7352;50.866;4.366;2023-05-09T08:26:56;17.80;99.90
14531;DHT22;7352;50.866;4.366;2023-05-09T08:29:23;18.00;99.90
14531;DHT22;7352;50.866;4.366;2023-05-09T08:31:50;18.10;99.90
14531;DHT22;7352;50.866;4.366;2023-05-09T08:34:17;18.30;99.90
14531;DHT22;7352;50.866;4.366;2023-05-09T08:36:45;18.30;99.90
14531;DHT22;7352;50.866;4.366;2023-05-09T08:39:14;18.30;99.90
14531;DHT22;7352;50.866;4.366;2023-05-09T08:41:41;18.20;99.90
14531;DHT22;7352;50.866;4.366;2023-05-09T08:44:09;18.00;99.90
14531;DHT22;7352;50.866;4.366;2023-05-09T08:46:38;17.90;99.90
14531;DHT22;7352;50.866;4.366;2023-05-09T08:49:09;17.80;99.90
14531;DHT22;7352;50.866;4.366;2023-05-09T08:51:37;17.80;99.90
14531;DHT22;7352;50.866;4.366;2023-05-09T08:54:06;17.80;99.90
14531;DHT22;7352;50.866;4.366;2023-05-09T08:56:34;17.90;99.90
14531;DHT22;7352;50.866;4.366;2023-05-09T08:59:03;17.80;99.90
14531;DHT22;7352;50.866;4.366;2023-05-09T09:01:32;17.80;99.90
14531;DHT22;7352;50.866;4.366;2023-05-09T09:04:00;17.80;99.90
14531;DHT22;7352;50.866;4.366;2023-05-09T09:06:27;17.70;99.90
14531;DHT22;7352;50.866;4.366;2023-05-09T09:08:54;17.60;99.90
14531;DHT22;7352;50.866;4.366;2023-05-09T09:11:24;17.50;99.90
14531;DHT22;7352;50.866;4.366;2023-05-09T09:13:52;17.40;99.90
14531;DHT22;7352;50.866;4.366;2023-05-09T09:16:21;17.60;99.90
14531;DHT22;7352;50.866;4.366;2023-05-09T09:18:51;17.60;99.90
14531;DHT22;7352;50.866;4.366;2023-05-09T09:21:20;17.40;99.90
14531;DHT22;7352;50.866;4.366;2023-05-09T09:23:48;17.50;99.90
14531;DHT22;7352;50.866;4.366;2023-05-09T09:26:15;17.60;99.90
14531;DHT22;7352;50.866;4.366;2023-05-09T09:28:44;17.80;99.90
14531;DHT22;7352;50.866;4.366;2023-05-09T09:31:19;17.70;99.90
14531;DHT22;7352;50.866;4.366;2023-05-09T09:33:46;18.00;99.90
14531;DHT22;7352;50.866;4.366;2023-05-09T09:36:14;18.20;99.90
14531;DHT22;7352;50.866;4.366;2023-05-09T09:38:41;18.10;99.90
14531;DHT22;7352;50.866;4.366;2023-05-09T09:41:09;18.10;99.90
14531;DHT22;7352;50.866;4.366;2023-05-09T09:43:38;18.10;99.90
14531;DHT22;7352;50.866;4.366;2023-05-09T09:46:13;18.00;99.90
14531;DHT22;7352;50.866;4.366;2023-05-09T09:48:45;18.00;99.90
14531;DHT22;7352;50.866;4.366;2023-05-09T09:51:17;17.90;99.90
14531;DHT22;7352;50.866;4.366;2023-05-09T09:53:45;17.60;99.90
14531;DHT22;7352;50.866;4.366;2023-05-09T09:56:12;17.20;99.90
14531;DHT22;7352;50.866;4.366;2023-05-09T09:58:39;17.30;99.90
14531;DHT22;7352;50.866;4.366;2023-05-09T10:01:08;17.30;99.90
14531;DHT22;7352;50.866;4.366;2023-05-09T10:03:38;17.40;99.90
14531;DHT22;7352;50.866;4.366;2023-05-09T10:06:09;17.40;99.90
14531;DHT22;7352;50.866;4.366;2023-05-09T10:08:37;17.40;99.90
14531;DHT22;7352;50.866;4.366;2023-05-09T10:11:04;17.30;99.90
14531;DHT22;7352;50.866;4.366;2023-05-09T10:13:34;17.30;99.90
14531;DHT22;7352;50.866;4.366;2023-05-09T10:16:02;17.40;99.90
14531;DHT22;7352;50.866;4.366;2023-05-09T10:18:30;17.50;99.90
14531;DHT22;7352;50.866;4.366;2023-05-09T10:20:59;17.60;99.90
14531;DHT22;7352;50.866;4.366;2023-05-09T10:23:29;17.70;99.90
14531;DHT22;7352;50.866;4.366;2023-05-09T10:26:03;17.80;99.90
14531;DHT22;7352;50.866;4.366;2023-05-09T10:28:34;17.70;99.90
14531;DHT22;7352;50.866;4.366;2023-05-09T10:31:08;17.60;99.90
14531;DHT22;7352;50.866;4.366;2023-05-09T10:33:41;17.60;99.90
14531;DHT22;7352;50.866;4.366;2023-05-09T10:36:11;17.50;99.90
14531;DHT22;7352;50.866;4.366;2023-05-09T10:38:38;17.60;99.90
14531;DHT22;7352;50.866;4.366;2023-05-09T10:41:06;17.50;99.90
14531;DHT22;7352;50.866;4.366;2023-05-09T10:43:35;17.50;99.90
14531;DHT22;7352;50.866;4.366;2023-05-09T10:46:02;17.50;99.90
14531;DHT22;7352;50.866;4.366;2023-05-09T10:48:30;17.70;99.90
14531;DHT22;7352;50.866;4.366;2023-05-09T10:50:59;17.60;99.90
14531;DHT22;7352;50.866;4.366;2023-05-09T10:53:39;17.70;99.90
14531;DHT22;7352;50.866;4.366;2023-05-09T10:56:07;17.80;99.90
14531;DHT22;7352;50.866;4.366;2023-05-09T10:58:34;17.90;99.90
14531;DHT22;7352;50.866;4.366;2023-05-09T11:01:04;17.70;99.90
14531;DHT22;7352;50.866;4.366;2023-05-09T11:03:52;17.70;99.90
14531;DHT22;7352;50.866;4.366;2023-05-09T11:06:42;17.60;99.90
14531;DHT22;7352;50.866;4.366;2023-05-09T11:09:39;17.60;99.90
14531;DHT22;7352;50.866;4.366;2023-05-09T11:12:12;17.70;99.90
14531;DHT22;7352;50.866;4.366;2023-05-09T11:14:43;17.60;99.90
14531;DHT22;7352;50.866;4.366;2023-05-09T11:17:12;17.50;99.90
14531;DHT22;7352;50.866;4.366;2023-05-09T11:19:58;17.40;99.90
14531;DHT22;7352;50.866;4.366;2023-05-09T11:22:28;17.40;99.90
14531;DHT22;7352;50.866;4.366;2023-05-09T11:25:04;17.30;99.90
14531;DHT22;7352;50.866;4.366;2023-05-09T11:27:37;17.20;99.90
14531;DHT22;7352;50.866;4.366;2023-05-09T11:30:07;17.10;99.90
14531;DHT22;7352;50.866;4.366;2023-05-09T11:32:40;17.10;99.90
14531;DHT22;7352;50.866;4.366;2023-05-09T11:35:09;17.20;99.90
14531;DHT22;7352;50.866;4.366;2023-05-09T11:37:58;17.20;99.90
14531;DHT22;7352;50.866;4.366;2023-05-09T11:40:27;17.40;99.90
14531;DHT22;7352;50.866;4.366;2023-05-09T11:42:56;17.50;99.90
14531;DHT22;7352;50.866;4.366;2023-05-09T11:45:24;17.40;99.90
14531;DHT22;7352;50.866;4.366;2023-05-09T11:47:53;17.30;99.90
14531;DHT22;7352;50.866;4.366;2023-05-09T11:50:22;17.20;99.90
14531;DHT22;7352;50.866;4.366;2023-05-09T11:52:50;17.10;99.90
14531;DHT22;7352;50.866;4.366;2023-05-09T11:55:19;17.20;99.90
14531;DHT22;7352;50.866;4.366;2023-05-09T11:57:50;17.10;99.90
14531;DHT22;7352;50.866;4.366;2023-05-09T12:00:20;17.00;99.90
14531;DHT22;7352;50.866;4.366;2023-05-09T12:02:48;17.00;99.90
14531;DHT22;7352;50.866;4.366;2023-05-09T12:05:17;16.90;99.90
14531;DHT22;7352;50.866;4.366;2023-05-09T12:07:44;16.80;99.90
14531;DHT22;7352;50.866;4.366;2023-05-09T12:10:13;16.70;99.90
14531;DHT22;7352;50.866;4.366;2023-05-09T12:12:43;16.80;99.90
14531;DHT22;7352;50.866;4.366;2023-05-09T12:15:12;16.90;99.90
14531;DHT22;7352;50.866;4.366;2023-05-09T12:17:40;16.90;99.90
14531;DHT22;7352;50.866;4.366;2023-05-09T12:20:08;16.90;99.90
14531;DHT22;7352;50.866;4.366;2023-05-09T12:22:35;17.00;99.90
14531;DHT22;7352;50.866;4.366;2023-05-09T12:25:05;17.20;99.90
14531;DHT22;7352;50.866;4.366;2023-05-09T12:27:34;17.20;99.90
14531;DHT22;7352;50.866;4.366;2023-05-09T12:30:01;17.20;99.90
14531;DHT22;7352;50.866;4.366;2023-05-09T12:32:34;17.00;99.90
14531;DHT22;7352;50.866;4.366;2023-05-09T12:35:04;16.80;99.90
14531;DHT22;7352;50.866;4.366;2023-05-09T12:37:33;16.50;99.90
14531;DHT22;7352;50.866;4.366;2023-05-09T12:40:00;16.50;99.90
14531;DHT22;7352;50.866;4.366;2023-05-09T12:42:28;16.40;99.90
14531;DHT22;7352;50.866;4.366;2023-05-09T12:44:55;16.40;99.90
14531;DHT22;7352;50.866;4.366;2023-05-09T12:47:26;16.60;99.90
14531;DHT22;7352;50.866;4.366;2023-05-09T12:49:58;16.60;99.90
14531;DHT22;7352;50.866;4.366;2023-05-09T12:52:31;16.60;99.90
14531;DHT22;7352;50.866;4.366;2023-05-09T12:55:04;16.60;99.90
14531;DHT22;7352;50.866;4.366;2023-05-09T12:57:31;16.70;99.90
14531;DHT22;7352;50.866;4.366;2023-05-09T12:59:59;16.70;99.90
14531;DHT22;7352;50.866;4.366;2023-05-09T13:02:27;16.60;99.90
14531;DHT22;7352;50.866;4.366;2023-05-09T13:05:08;16.60;99.90
14531;DHT22;7352;50.866;4.366;2023-05-09T13:07:39;16.70;99.90
14531;DHT22;7352;50.866;4.366;2023-05-09T13:10:11;16.60;99.90
14531;DHT22;7352;50.866;4.366;2023-05-09T13:12:38;16.60;99.90
14531;DHT22;7352;50.866;4.366;2023-05-09T13:15:10;16.70;99.90
14531;DHT22;7352;50.866;4.366;2023-05-09T13:17:37;16.70;99.90
14531;DHT22;7352;50.866;4.366;2023-05-09T13:20:05;16.80;99.90
14531;DHT22;7352;50.866;4.366;2023-05-09T13:22:34;16.80;99.90
14531;DHT22;7352;50.866;4.366;2023-05-09T13:25:02;16.90;99.90
14531;DHT22;7352;50.866;4.366;2023-05-09T13:27:29;17.00;99.90
14531;DHT22;7352;50.866;4.366;2023-05-09T13:29:56;16.90;99.90
14531;DHT22;7352;50.866;4.366;2023-05-09T13:32:23;16.80;99.90
14531;DHT22;7352;50.866;4.366;2023-05-09T13:34:51;17.00;99.90
14531;DHT22;7352;50.866;4.366;2023-05-09T13:37:18;16.90;99.90
14531;DHT22;7352;50.866;4.366;2023-05-09T13:39:47;17.00;99.90
14531;DHT22;7352;50.866;4.366;2023-05-09T13:42:14;17.00;99.90
14531;DHT22;7352;50.866;4.366;2023-05-09T13:44:41;16.90;99.90
14531;DHT22;7352;50.866;4.366;2023-05-09T13:47:08;16.80;99.90
14531;DHT22;7352;50.866;4.366;2023-05-09T13:49:35;16.80;99.90
14531;DHT22;7352;50.866;4.366;2023-05-09T13:52:05;16.90;99.90
14531;DHT22;7352;50.866;4.366;2023-05-09T13:54:33;16.90;99.90
14531;DHT22;7352;50.866;4.366;2023-05-09T13:57:02;16.90;99.90
14531;DHT22;7352;50.866;4.366;2023-05-09T13:59:30;16.90;99.90
14531;DHT22;7352;50.866;4.366;2023-05-09T14:01:57;16.60;99.90
14531;DHT22;7352;50.866;4.366;2023-05-09T14:04:24;16.40;99.90
14531;DHT22;7352;50.866;4.366;2023-05-09T14:06:51;16.30;99.90
14531;DHT22;7352;50.866;4.366;2023-05-09T14:09:19;16.40;99.90
14531;DHT22;7352;50.866;4.366;2023-05-09T14:11:47;16.50;99.90
14531;DHT22;7352;50.866;4.366;2023-05-09T14:14:23;16.40;99.90
14531;DHT22;7352;50.866;4.366;2023-05-09T14:16:51;16.40;99.90
14531;DHT22;7352;50.866;4.366;2023-05-09T14:19:18;16.40;99.90
14531;DHT22;7352;50.866;4.366;2023-05-09T14:21:45;16.30;99.90
14531;DHT22;7352;50.866;4.366;2023-05-09T14:24:13;16.30;99.90
14531;DHT22;7352;50.866;4.366;2023-05-09T14:26:40;16.40;99.90
14531;DHT22;7352;50.866;4.366;2023-05-09T14:29:07;16.30;99.90
14531;DHT22;7352;50.866;4.366;2023-05-09T14:31:37;16.40;99.90
14531;DHT22;7352;50.866;4.366;2023-05-09T14:34:04;16.60;99.90
14531;DHT22;7352;50.866;4.366;2023-05-09T14:36:31;16.40;99.90
14531;DHT22;7352;50.866;4.366;2023-05-09T14:38:58;16.50;99.90
14531;DHT22;7352;50.866;4.366;2023-05-09T14:41:26;16.60;99.90
14531;DHT22;7352;50.866;4.366;2023-05-09T14:43:53;16.50;99.90
14531;DHT22;7352;50.866;4.366;2023-05-09T14:46:22;16.60;99.90
14531;DHT22;7352;50.866;4.366;2023-05-09T14:48:53;16.50;99.90
14531;DHT22;7352;50.866;4.366;2023-05-09T14:51:25;16.60;99.90
14531;DHT22;7352;50.866;4.366;2023-05-09T14:53:53;16.60;99.90
14531;DHT22;7352;50.866;4.366;2023-05-09T14:56:20;16.80;99.90
14531;DHT22;7352;50.866;4.366;2023-05-09T14:58:54;16.90;99.90
14531;DHT22;7352;50.866;4.366;2023-05-09T15:01:21;16.80;99.90
14531;DHT22;7352;50.866;4.366;2023-05-09T15:03:48;16.60;99.90
14531;DHT22;7352;50.866;4.366;2023-05-09T15:06:17;16.50;99.90
14531;DHT22;7352;50.866;4.366;2023-05-09T15:08:44;16.50;99.90
14531;DHT22;7352;50.866;4.366;2023-05-09T15:11:11;16.40;99.90
14531;DHT22;7352;50.866;4.366;2023-05-09T15:13:38;16.40;99.90
14531;DHT22;7352;50.866;4.366;2023-05-09T15:16:05;16.50;99.90
14531;DHT22;7352;50.866;4.366;2023-05-09T15:18:33;16.40;99.90
14531;DHT22;7352;50.866;4.366;2023-05-09T15:21:00;16.50;99.90
14531;DHT22;7352;50.866;4.366;2023-05-09T15:23:28;16.60;99.90
14531;DHT22;7352;50.866;4.366;2023-05-09T15:25:55;16.60;99.90
14531;DHT22;7352;50.866;4.366;2023-05-09T15:28:23;16.50;99.90
14531;DHT22;7352;50.866;4.366;2023-05-09T15:30:50;16.50;99.90
14531;DHT22;7352;50.866;4.366;2023-05-09T15:33:17;16.70;99.90
14531;DHT22;7352;50.866;4.366;2023-05-09T15:35:44;16.60;99.90
14531;DHT22;7352;50.866;4.366;2023-05-09T15:38:11;16.50;99.90
14531;DHT22;7352;50.866;4.366;2023-05-09T15:40:40;16.50;99.90
14531;DHT22;7352;50.866;4.366;2023-05-09T15:43:07;16.50;99.90
14531;DHT22;7352;50.866;4.366;2023-05-09T15:45:35;16.70;99.90
14531;DHT22;7352;50.866;4.366;2023-05-09T15:48:04;16.60;99.90
14531;DHT22;7352;50.866;4.366;2023-05-09T15:50:31;16.60;99.90
14531;DHT22;7352;50.866;4.366;2023-05-09T15:52:58;16.60;99.90
14531;DHT22;7352;50.866;4.366;2023-05-09T15:55:25;16.70;99.90
14531;DHT22;7352;50.866;4.366;2023-05-09T15:57:54;16.70;99.90
14531;DHT22;7352;50.866;4.366;2023-05-09T16:00:22;16.60;99.90